createdAt,value
2023-03-28T00:00:21.641Z,9.746004
2023-03-28T00:01:21.630Z,9.745582
2023-03-28T00:02:21.651Z,9.745598
2023-03-28T00:03:21.655Z,9.746008
2023-03-28T00:04:21.713Z,9.745710
2023-03-28T00:05:21.631Z,9.745457
2023-03-28T00:06:21.673Z,9.745513
2023-03-28T00:07:21.614Z,9.745431
2023-03-28T00:08:21.584Z,9.745348
2023-03-28T00:09:21.570Z,9.745957
2023-03-28T00:10:21.570Z,9.745797
2023-03-28T00:11:21.588Z,9.745581
2023-03-28T00:12:21.572Z,9.745430
2023-03-28T00:13:21.558Z,9.744858
2023-03-28T00:14:21.554Z,9.745181
2023-03-28T00:15:21.531Z,9.745324
2023-03-28T00:16:21.590Z,9.744650
2023-03-28T00:17:21.585Z,9.745070
2023-03-28T00:18:21.521Z,9.745362
2023-03-28T00:19:22.019Z,9.745457
2023-03-28T00:20:21.499Z,9.745423
2023-03-28T00:21:21.493Z,9.745425
2023-03-28T00:22:21.506Z,9.745189
2023-03-28T00:23:21.469Z,9.745694
2023-03-28T00:24:21.625Z,9.745312
2023-03-28T00:25:21.458Z,9.745380
2023-03-28T00:26:21.457Z,9.745531
2023-03-28T00:27:21.470Z,9.745435
2023-03-28T00:28:21.433Z,9.745448
2023-03-28T00:29:21.690Z,9.745193
2023-03-28T00:30:21.420Z,9.745457
2023-03-28T00:31:21.489Z,9.745378
2023-03-28T00:32:21.428Z,9.745481
2023-03-28T00:33:21.388Z,9.745353
2023-03-28T00:34:21.381Z,9.745415
2023-03-28T00:35:21.404Z,9.745268
2023-03-28T00:36:21.367Z,9.745448
2023-03-28T00:37:21.392Z,9.745468
2023-03-28T00:38:21.361Z,9.745382
2023-03-28T00:39:21.349Z,9.745758
2023-03-28T00:40:21.344Z,9.745543
2023-03-28T00:41:21.337Z,9.745618
2023-03-28T00:42:21.352Z,9.745590
2023-03-28T00:43:21.326Z,9.745362
2023-03-28T00:44:21.314Z,9.745497
2023-03-28T00:45:21.306Z,9.745873
2023-03-28T00:46:21.318Z,9.745590
2023-03-28T00:47:21.317Z,9.745525
2023-03-28T00:48:21.289Z,9.745461
2023-03-28T00:49:21.293Z,9.745582
2023-03-28T00:50:21.262Z,9.745646
2023-03-28T00:51:21.252Z,9.745667
2023-03-28T00:52:21.277Z,9.745749
2023-03-28T00:53:21.283Z,9.745726
2023-03-28T00:54:21.242Z,9.745821
2023-03-28T00:55:21.226Z,9.745679
2023-03-28T00:56:21.217Z,9.745767
2023-03-28T00:57:21.211Z,9.745583
2023-03-28T00:58:21.248Z,9.745756
2023-03-28T00:59:21.201Z,9.745655
2023-03-28T01:00:21.227Z,9.745655
2023-03-28T01:01:21.208Z,9.745612
2023-03-28T01:02:21.204Z,9.745582
2023-03-28T01:03:21.264Z,9.745461
2023-03-28T01:04:21.156Z,9.745605
2023-03-28T01:05:21.160Z,9.745540
2023-03-28T01:06:22.142Z,9.745584
2023-03-28T01:07:21.129Z,9.745597
2023-03-28T01:08:21.154Z,9.745651
2023-03-28T01:09:21.147Z,9.745753
2023-03-28T01:10:21.106Z,9.745497
2023-03-28T01:11:21.095Z,9.745481
2023-03-28T01:12:21.101Z,9.745690
2023-03-28T01:13:21.136Z,9.745597
2023-03-28T01:14:21.081Z,9.745603
2023-03-28T01:15:21.068Z,9.745585
2023-03-28T01:16:21.097Z,9.745677
2023-03-28T01:17:21.064Z,9.745473
2023-03-28T01:18:21.067Z,9.745575
2023-03-28T01:19:21.033Z,9.745632
2023-03-28T01:20:21.028Z,9.745496
2023-03-28T01:21:21.020Z,9.745371
2023-03-28T01:22:21.010Z,9.745501
2023-03-28T01:23:21.029Z,9.745446
2023-03-28T01:24:20.994Z,9.745375
2023-03-28T01:25:20.991Z,9.745608
2023-03-28T01:26:20.993Z,9.745595
2023-03-28T01:27:20.973Z,9.745396
2023-03-28T01:28:20.987Z,9.745343
2023-03-28T01:29:20.966Z,9.745543
2023-03-28T01:30:20.948Z,9.745591
2023-03-28T01:31:20.979Z,9.745556
2023-03-28T01:32:20.945Z,9.745599
2023-03-28T01:33:20.949Z,9.745438
2023-03-28T01:34:20.928Z,9.745590
2023-03-28T01:35:20.947Z,9.745202
2023-03-28T01:36:34.147Z,9.745407
2023-03-28T01:37:21.889Z,9.745527
2023-03-28T01:38:20.920Z,9.745388
2023-03-28T01:39:20.886Z,9.745712
2023-03-28T01:40:20.870Z,9.745617
2023-03-28T01:41:20.863Z,9.745567
2023-03-28T01:42:20.861Z,9.745239
2023-03-28T01:43:20.899Z,9.745551
2023-03-28T01:44:20.841Z,9.745293
2023-03-28T01:45:20.849Z,9.745586
2023-03-28T01:46:20.891Z,9.745404
2023-03-28T01:47:20.823Z,9.745213
2023-03-28T01:48:20.856Z,9.745473
2023-03-28T01:49:20.813Z,9.745537
2023-03-28T01:50:20.806Z,9.745763
2023-03-28T01:51:20.796Z,9.745528
2023-03-28T01:52:20.795Z,9.745511
2023-03-28T01:53:20.831Z,9.745439
2023-03-28T01:54:20.770Z,9.745667
2023-03-28T01:55:20.781Z,9.745421
2023-03-28T01:56:20.778Z,9.745456
2023-03-28T01:57:20.794Z,9.745148
2023-03-28T01:58:20.752Z,9.745135
2023-03-28T01:59:20.764Z,9.745456
2023-03-28T02:00:20.752Z,9.745426
2023-03-28T02:01:20.754Z,9.745165
2023-03-28T02:02:20.806Z,9.745264
2023-03-28T02:03:20.783Z,9.745420
2023-03-28T02:04:21.422Z,9.745456
2023-03-28T02:05:20.699Z,9.745419
2023-03-28T02:06:20.684Z,9.744987
2023-03-28T02:07:20.688Z,9.745317
2023-03-28T02:08:20.715Z,9.745554
2023-03-28T02:09:20.822Z,9.745335
2023-03-28T02:10:20.654Z,9.745412
2023-03-28T02:11:20.649Z,9.745975
2023-03-28T02:12:20.642Z,9.744987
2023-03-28T02:13:20.639Z,9.745428
2023-03-28T02:14:20.655Z,9.745777
2023-03-28T02:15:20.617Z,9.745852
2023-03-28T02:16:20.652Z,9.746037
2023-03-28T02:17:20.626Z,9.745348
2023-03-28T02:18:20.652Z,9.745897
2023-03-28T02:19:20.615Z,9.745983
2023-03-28T02:20:20.596Z,9.745655
2023-03-28T02:21:20.584Z,9.745806
2023-03-28T02:22:20.582Z,9.745699
2023-03-28T02:23:20.568Z,9.745904
2023-03-28T02:24:20.587Z,9.745479
2023-03-28T02:25:20.548Z,9.745479
2023-03-28T02:26:20.552Z,9.746368
2023-03-28T02:27:20.532Z,9.745469
2023-03-28T02:28:20.533Z,9.745551
2023-03-28T02:29:20.557Z,9.745755
2023-03-28T02:30:20.518Z,9.745555
2023-03-28T02:31:20.528Z,9.745679
2023-03-28T02:32:20.496Z,9.745992
2023-03-28T02:33:20.489Z,9.745883
2023-03-28T02:34:20.509Z,9.746047
2023-03-28T02:35:20.502Z,9.745655
2023-03-28T02:36:20.469Z,9.744617
2023-03-28T02:37:20.485Z,9.739407
2023-03-28T02:38:20.452Z,9.739407
2023-03-28T02:39:20.472Z,9.739407
2023-03-28T02:40:20.446Z,9.739407
2023-03-28T02:41:20.437Z,9.739407
2023-03-28T02:42:20.430Z,9.739407
2023-03-28T02:43:20.419Z,9.746184
2023-03-28T02:44:20.929Z,9.745844
2023-03-28T02:45:20.413Z,9.745372
2023-03-28T02:46:20.414Z,9.745785
2023-03-28T02:47:20.402Z,9.746189
2023-03-28T02:48:20.388Z,9.746307
2023-03-28T02:49:20.405Z,9.746339
2023-03-28T02:50:20.382Z,9.746606
2023-03-28T02:51:20.362Z,9.746666
2023-03-28T02:52:20.361Z,9.746186
2023-03-28T02:53:20.350Z,9.745975
2023-03-28T02:54:20.364Z,9.745332
2023-03-28T02:55:20.336Z,9.745513
2023-03-28T02:56:20.324Z,9.745277
2023-03-28T02:57:20.348Z,9.745420
2023-03-28T02:58:20.311Z,9.745774
2023-03-28T02:59:20.329Z,9.745680
2023-03-28T03:00:20.289Z,9.746046
2023-03-28T03:01:20.361Z,9.746009
2023-03-28T03:02:20.284Z,9.745728
2023-03-28T03:03:20.276Z,9.745929
2023-03-28T03:04:20.292Z,9.745388
2023-03-28T03:05:20.261Z,9.745176
2023-03-28T03:06:20.243Z,9.745547
2023-03-28T03:07:20.235Z,9.745420
2023-03-28T03:08:20.239Z,9.745562
2023-03-28T03:09:20.243Z,9.745503
2023-03-28T03:10:20.226Z,9.745618
2023-03-28T03:11:20.217Z,9.745531
2023-03-28T03:12:20.194Z,9.745599
2023-03-28T03:13:20.185Z,9.745389
2023-03-28T03:14:20.211Z,9.745433
2023-03-28T03:15:20.184Z,9.745461
2023-03-28T03:16:20.211Z,9.745475
2023-03-28T03:17:20.158Z,9.745567
2023-03-28T03:18:20.158Z,9.745559
2023-03-28T03:19:20.207Z,9.745482
2023-03-28T03:20:20.142Z,9.745551
2023-03-28T03:21:20.129Z,9.745385
2023-03-28T03:22:20.841Z,9.745439
2023-03-28T03:23:20.116Z,9.745457
2023-03-28T03:24:20.105Z,9.745534
2023-03-28T03:25:20.154Z,9.745464
2023-03-28T03:26:20.090Z,9.745428
2023-03-28T03:27:20.081Z,9.745482
2023-03-28T03:28:20.074Z,9.745541
2023-03-28T03:29:20.074Z,9.745516
2023-03-28T03:30:20.088Z,9.745440
2023-03-28T03:31:20.167Z,9.745492
2023-03-28T03:32:20.043Z,9.745453
2023-03-28T03:33:20.056Z,9.745566
2023-03-28T03:34:20.032Z,9.745506
2023-03-28T03:35:20.087Z,9.745512
2023-03-28T03:36:20.017Z,9.745384
2023-03-28T03:37:20.009Z,9.745577
2023-03-28T03:38:20.003Z,9.745505
2023-03-28T03:39:19.997Z,9.745610
2023-03-28T03:40:20.010Z,9.745541
2023-03-28T03:41:19.971Z,9.745838
2023-03-28T03:42:19.974Z,9.745769
2023-03-28T03:43:19.961Z,9.745623
2023-03-28T03:44:19.967Z,9.745598
2023-03-28T03:45:19.976Z,9.745631
2023-03-28T03:46:19.977Z,9.745579
2023-03-28T03:47:19.938Z,9.745732
2023-03-28T03:48:19.922Z,9.745330
2023-03-28T03:49:19.921Z,9.745315
2023-03-28T03:50:19.936Z,9.745381
2023-03-28T03:51:19.906Z,9.745393
2023-03-28T03:52:19.895Z,9.745433
2023-03-28T03:53:19.885Z,9.745509
2023-03-28T03:54:19.888Z,9.745318
2023-03-28T03:55:19.908Z,9.745116
2023-03-28T03:56:19.859Z,9.745394
2023-03-28T03:57:19.955Z,9.745502
2023-03-28T03:58:20.499Z,9.745531
2023-03-28T03:59:19.836Z,9.745549
2023-03-28T04:00:19.867Z,9.745381
2023-03-28T04:01:19.827Z,9.745266
2023-03-28T04:02:19.850Z,9.745226
2023-03-28T04:03:23.909Z,9.745486
2023-03-28T04:04:20.802Z,9.745390
2023-03-28T04:05:19.823Z,9.745547
2023-03-28T04:06:19.788Z,9.745776
2023-03-28T04:07:19.787Z,9.745822
2023-03-28T04:08:19.773Z,9.745938
2023-03-28T04:09:19.769Z,9.745611
2023-03-28T04:10:19.804Z,9.745362
2023-03-28T04:11:19.749Z,9.745560
2023-03-28T04:12:19.739Z,9.745559
2023-03-28T04:13:19.746Z,9.745579
2023-03-28T04:14:19.728Z,9.745772
2023-03-28T04:15:19.733Z,9.745455
2023-03-28T04:16:19.759Z,9.745363
2023-03-28T04:17:19.703Z,9.745181
2023-03-28T04:18:19.719Z,9.745370
2023-03-28T04:19:19.696Z,9.745399
2023-03-28T04:20:19.686Z,9.745517
2023-03-28T04:21:19.697Z,9.745640
2023-03-28T04:22:19.692Z,9.745512
2023-03-28T04:23:19.661Z,9.745914
2023-03-28T04:24:19.652Z,9.745345
2023-03-28T04:25:19.640Z,9.745444
2023-03-28T04:26:19.658Z,9.745600
2023-03-28T04:27:19.626Z,9.745440
2023-03-28T04:28:19.616Z,9.745401
2023-03-28T04:29:19.612Z,9.745568
2023-03-28T04:30:19.604Z,9.745554
2023-03-28T04:31:19.689Z,9.745452
2023-03-28T04:32:19.589Z,9.745401
2023-03-28T04:33:19.586Z,9.745543
2023-03-28T04:34:19.576Z,9.745411
2023-03-28T04:35:19.622Z,9.745258
2023-03-28T04:36:19.592Z,9.745571
2023-03-28T04:37:19.552Z,9.745339
2023-03-28T04:38:20.670Z,9.745475
2023-03-28T04:39:19.540Z,9.745384
2023-03-28T04:40:19.532Z,9.745380
2023-03-28T04:41:19.632Z,9.745426
2023-03-28T04:42:19.517Z,9.745264
2023-03-28T04:43:19.509Z,9.745408
2023-03-28T04:44:19.501Z,9.745492
2023-03-28T04:45:19.490Z,9.745704
2023-03-28T04:46:19.556Z,9.745502
2023-03-28T04:47:19.479Z,9.745453
2023-03-28T04:48:19.474Z,9.745410
2023-03-28T04:49:19.461Z,9.745295
2023-03-28T04:50:19.462Z,9.745566
2023-03-28T04:51:19.473Z,9.745470
2023-03-28T04:52:19.438Z,9.745514
2023-03-28T04:53:19.435Z,9.745492
2023-03-28T04:54:19.442Z,9.745299
2023-03-28T04:55:19.424Z,9.745538
2023-03-28T04:56:19.436Z,9.745625
2023-03-28T04:57:19.533Z,9.745569
2023-03-28T04:58:19.390Z,9.745148
2023-03-28T04:59:19.385Z,9.745440
2023-03-28T05:00:19.387Z,9.745457
2023-03-28T05:01:19.478Z,9.745405
2023-03-28T05:02:19.370Z,9.745656
2023-03-28T05:03:19.443Z,9.745365
2023-03-28T05:04:19.354Z,9.745131
2023-03-28T05:05:19.339Z,9.745406
2023-03-28T05:06:19.363Z,9.745255
2023-03-28T05:07:19.324Z,9.744976
2023-03-28T05:08:19.321Z,9.744954
2023-03-28T05:09:19.310Z,9.745468
2023-03-28T05:10:19.308Z,9.745499
2023-03-28T05:11:19.319Z,9.745333
2023-03-28T05:12:20.290Z,9.745201
2023-03-28T05:13:19.277Z,9.745306
2023-03-28T05:14:19.268Z,9.745344
2023-03-28T05:15:22.995Z,9.745403
2023-03-28T05:16:19.297Z,9.745385
2023-03-28T05:17:19.257Z,9.745504
2023-03-28T05:18:19.248Z,9.745226
2023-03-28T05:19:19.236Z,9.745226
2023-03-28T05:20:19.222Z,9.744969
2023-03-28T05:21:19.243Z,9.745150
2023-03-28T05:22:19.219Z,9.744824
2023-03-28T05:23:19.205Z,9.745154
2023-03-28T05:24:19.207Z,9.745219
2023-03-28T05:25:19.187Z,9.745153
2023-03-28T05:26:19.333Z,9.745093
2023-03-28T05:27:19.169Z,9.745151
2023-03-28T05:28:19.157Z,9.745285
2023-03-28T05:29:19.158Z,9.745275
2023-03-28T05:30:19.151Z,9.745246
2023-03-28T05:31:19.169Z,9.745357
2023-03-28T05:32:19.128Z,9.745442
2023-03-28T05:33:19.128Z,9.745619
2023-03-28T05:34:19.116Z,9.746071
2023-03-28T05:35:19.109Z,9.745965
2023-03-28T05:36:19.158Z,9.745758
2023-03-28T05:37:19.093Z,9.745416
2023-03-28T05:38:19.093Z,9.744755
2023-03-28T05:39:19.085Z,9.745675
2023-03-28T05:40:19.077Z,9.745625
2023-03-28T05:41:19.105Z,9.745500
2023-03-28T05:42:19.083Z,9.745132
2023-03-28T05:43:19.052Z,9.745508
2023-03-28T05:44:19.084Z,9.745381
2023-03-28T05:45:20.059Z,9.745907
2023-03-28T05:46:19.132Z,9.745758
2023-03-28T05:47:19.050Z,9.745421
2023-03-28T05:48:19.022Z,9.745812
2023-03-28T05:49:19.036Z,9.745496
2023-03-28T05:50:18.995Z,9.745182
2023-03-28T05:51:19.024Z,9.745364
2023-03-28T05:52:18.984Z,9.745731
2023-03-28T05:53:18.968Z,9.745496
2023-03-28T05:54:18.968Z,9.745270
2023-03-28T05:55:18.975Z,9.745297
2023-03-28T05:56:18.976Z,9.745563
2023-03-28T05:57:19.084Z,9.745463
2023-03-28T05:58:18.944Z,9.745398
2023-03-28T05:59:18.931Z,9.745518
2023-03-28T06:00:18.917Z,9.745361
2023-03-28T06:01:18.943Z,9.745476
2023-03-28T06:02:18.906Z,9.744967
2023-03-28T06:03:18.986Z,9.745206
2023-03-28T06:04:18.920Z,9.745354
2023-03-28T06:05:18.882Z,9.745422
2023-03-28T06:06:18.897Z,9.745518
2023-03-28T06:07:23.117Z,9.745249
2023-03-28T06:08:20.858Z,9.745452
2023-03-28T06:09:18.848Z,9.745398
2023-03-28T06:10:18.846Z,9.745758
2023-03-28T06:11:18.864Z,9.745870
2023-03-28T06:12:18.819Z,9.745978
2023-03-28T06:13:18.826Z,9.746017
2023-03-28T06:14:19.973Z,9.746037
2023-03-28T06:15:18.798Z,9.745762
2023-03-28T06:16:18.835Z,9.745654
2023-03-28T06:17:19.836Z,9.745520
2023-03-28T06:18:18.783Z,9.745443
2023-03-28T06:19:19.026Z,9.745394
2023-03-28T06:20:18.765Z,9.745210
2023-03-28T06:21:18.747Z,9.745297
2023-03-28T06:22:18.766Z,9.745553
2023-03-28T06:23:18.733Z,9.745535
2023-03-28T06:24:18.719Z,9.745312
2023-03-28T06:25:18.728Z,9.745472
2023-03-28T06:26:18.714Z,9.745766
2023-03-28T06:27:18.727Z,9.746007
2023-03-28T06:28:18.690Z,9.745546
2023-03-28T06:29:18.687Z,9.745460
2023-03-28T06:30:18.674Z,9.745461
2023-03-28T06:31:18.711Z,9.745494
2023-03-28T06:32:18.683Z,9.745553
2023-03-28T06:33:18.653Z,9.745581
2023-03-28T06:34:18.662Z,9.745111
2023-03-28T06:35:18.644Z,9.745542
2023-03-28T06:36:18.624Z,9.745412
2023-03-28T06:37:18.649Z,9.745569
2023-03-28T06:38:18.683Z,9.745520
2023-03-28T06:39:18.604Z,9.745520
2023-03-28T06:40:18.595Z,9.745346
2023-03-28T06:41:18.582Z,9.745592
2023-03-28T06:42:18.610Z,9.745309
2023-03-28T06:43:18.577Z,9.745427
2023-03-28T06:44:18.556Z,9.745620
2023-03-28T06:45:18.557Z,9.745644
2023-03-28T06:46:18.544Z,9.745592
2023-03-28T06:47:18.598Z,9.745473
2023-03-28T06:48:18.536Z,9.745551
2023-03-28T06:49:18.559Z,9.745560
2023-03-28T06:50:18.522Z,9.745583
2023-03-28T06:51:18.510Z,9.745683
2023-03-28T06:52:18.526Z,9.745688
2023-03-28T06:53:18.491Z,9.745690
2023-03-28T06:54:18.506Z,9.745461
2023-03-28T06:55:18.488Z,9.745728
2023-03-28T06:56:18.476Z,9.745588
2023-03-28T06:57:18.615Z,9.745488
2023-03-28T06:58:18.453Z,9.745566
2023-03-28T06:59:18.456Z,9.745644
2023-03-28T07:00:18.445Z,9.745655
2023-03-28T07:01:18.451Z,9.745520
2023-03-28T07:02:18.480Z,9.745414
2023-03-28T07:03:18.510Z,9.745492
2023-03-28T07:04:18.404Z,9.745568
2023-03-28T07:05:18.401Z,9.745663
2023-03-28T07:06:18.386Z,9.745650
2023-03-28T07:07:18.416Z,9.745790
2023-03-28T07:08:18.377Z,9.745739
2023-03-28T07:09:18.370Z,9.745596
2023-03-28T07:10:18.390Z,9.745605
2023-03-28T07:11:18.362Z,9.745768
2023-03-28T07:12:18.379Z,9.745521
2023-03-28T07:13:18.350Z,9.745618
2023-03-28T07:14:18.331Z,9.745894
2023-03-28T07:15:19.509Z,9.745752
2023-03-28T07:16:19.333Z,9.745687
2023-03-28T07:17:18.329Z,9.745629
2023-03-28T07:18:18.297Z,9.745625
2023-03-28T07:19:18.290Z,9.745667
2023-03-28T07:20:18.289Z,9.745758
2023-03-28T07:21:18.279Z,9.745869
2023-03-28T07:22:18.302Z,9.745539
2023-03-28T07:23:18.265Z,9.745652
2023-03-28T07:24:18.253Z,9.745723
2023-03-28T07:25:18.246Z,9.745719
2023-03-28T07:26:18.228Z,9.745708
2023-03-28T07:27:19.261Z,9.745715
2023-03-28T07:28:18.261Z,9.745524
2023-03-28T07:29:18.211Z,9.745456
2023-03-28T07:30:18.235Z,9.745543
2023-03-28T07:31:18.258Z,9.745727
2023-03-28T07:32:18.224Z,9.745831
2023-03-28T07:33:22.134Z,9.745771
2023-03-28T07:34:20.210Z,9.745597
2023-03-28T07:35:18.180Z,9.745851
2023-03-28T07:36:18.242Z,9.745505
2023-03-28T07:37:18.180Z,9.745372
2023-03-28T07:38:18.146Z,9.745098
2023-03-28T07:39:18.167Z,9.745621
2023-03-28T07:40:18.148Z,9.745642
2023-03-28T07:41:18.152Z,9.745216
2023-03-28T07:42:18.137Z,9.745336
2023-03-28T07:43:18.106Z,9.745285
2023-03-28T07:44:18.088Z,9.745528
2023-03-28T07:45:18.080Z,9.745490
2023-03-28T07:46:18.122Z,9.745318
2023-03-28T07:47:18.116Z,9.745296
2023-03-28T07:48:18.061Z,9.745478
2023-03-28T07:49:18.055Z,9.745770
2023-03-28T07:50:18.046Z,9.745649
2023-03-28T07:51:18.037Z,9.745718
2023-03-28T07:52:18.054Z,9.745715
2023-03-28T07:53:18.020Z,9.745567
2023-03-28T07:54:18.145Z,9.745588
2023-03-28T07:55:18.005Z,9.745536
2023-03-28T07:56:17.993Z,9.745553
2023-03-28T07:57:18.074Z,9.745518
2023-03-28T07:58:17.977Z,9.745608
2023-03-28T07:59:17.988Z,9.745831
2023-03-28T08:00:17.966Z,9.746001
2023-03-28T08:01:17.969Z,9.745861
2023-03-28T08:02:17.978Z,9.745603
2023-03-28T08:03:18.042Z,9.745653
2023-03-28T08:04:17.942Z,9.745255
2023-03-28T08:05:17.942Z,9.745341
2023-03-28T08:06:31.679Z,9.745337
2023-03-28T08:07:19.946Z,9.745580
2023-03-28T08:08:17.914Z,9.745645
2023-03-28T08:09:17.896Z,9.745685
2023-03-28T08:10:17.892Z,9.745475
2023-03-28T08:11:17.881Z,9.745696
2023-03-28T08:12:17.899Z,9.745888
2023-03-28T08:13:17.870Z,9.745709
2023-03-28T08:14:17.860Z,9.745516
2023-03-28T08:15:17.855Z,9.745403
2023-03-28T08:16:17.902Z,9.745309
2023-03-28T08:17:17.856Z,9.745510
2023-03-28T08:18:17.860Z,9.745389
2023-03-28T08:19:17.831Z,9.745624
2023-03-28T08:20:18.644Z,9.745754
2023-03-28T08:21:17.808Z,9.745574
2023-03-28T08:22:17.815Z,9.745600
2023-03-28T08:23:17.818Z,9.745511
2023-03-28T08:24:29.021Z,9.745551
2023-03-28T08:25:19.778Z,9.745263
2023-03-28T08:26:17.775Z,9.745351
2023-03-28T08:27:17.764Z,9.745408
2023-03-28T08:28:17.785Z,9.745415
2023-03-28T08:29:17.751Z,9.745810
2023-03-28T08:30:17.744Z,9.745652
2023-03-28T08:31:17.768Z,9.745672
2023-03-28T08:32:17.726Z,9.745628
2023-03-28T08:33:17.822Z,9.745571
2023-03-28T08:34:17.745Z,9.745516
2023-03-28T08:35:17.723Z,9.745500
2023-03-28T08:36:17.765Z,9.745697
2023-03-28T08:37:17.692Z,9.745500
2023-03-28T08:38:17.712Z,9.745563
2023-03-28T08:39:17.676Z,9.745357
2023-03-28T08:40:17.681Z,9.745305
2023-03-28T08:41:17.658Z,9.745442
2023-03-28T08:42:17.652Z,9.745393
2023-03-28T08:43:17.676Z,9.745370
2023-03-28T08:44:17.633Z,9.745425
2023-03-28T08:45:18.647Z,9.745620
2023-03-28T08:46:17.728Z,9.745703
2023-03-28T08:47:17.640Z,9.745685
2023-03-28T08:48:17.638Z,9.745578
2023-03-28T08:49:17.613Z,9.745559
2023-03-28T08:50:17.605Z,9.745581
2023-03-28T08:51:17.590Z,9.745538
2023-03-28T08:52:17.586Z,9.745833
2023-03-28T08:53:17.609Z,9.745632
2023-03-28T08:54:17.567Z,9.745522
2023-03-28T08:55:17.565Z,9.745497
2023-03-28T08:56:17.555Z,9.745417
2023-03-28T08:57:17.836Z,9.745360
2023-03-28T08:58:17.547Z,9.745381
2023-03-28T08:59:17.559Z,9.745373
2023-03-28T09:00:17.574Z,9.745435
2023-03-28T09:01:17.531Z,9.745545
2023-03-28T09:02:17.606Z,9.745504
2023-03-28T09:03:17.581Z,9.745486
2023-03-28T09:04:17.581Z,9.745494
2023-03-28T09:05:23.776Z,9.745380
2023-03-28T09:06:19.485Z,9.745424
2023-03-28T09:07:17.487Z,9.745552
2023-03-28T09:08:19.744Z,9.745693
2023-03-28T09:09:18.496Z,9.745555
2023-03-28T09:10:17.460Z,9.745498
2023-03-28T09:11:17.464Z,9.745479
2023-03-28T09:12:17.442Z,9.745538
2023-03-28T09:13:17.443Z,9.745461
2023-03-28T09:14:17.463Z,9.745506
2023-03-28T09:15:17.418Z,9.745570
2023-03-28T09:16:17.469Z,9.745274
2023-03-28T09:17:17.405Z,9.745403
2023-03-28T09:18:17.397Z,9.745328
2023-03-28T09:19:17.412Z,9.745539
2023-03-28T09:20:17.383Z,9.745538
2023-03-28T09:21:17.379Z,9.745498
2023-03-28T09:22:17.366Z,9.745561
2023-03-28T09:23:17.364Z,9.745473
2023-03-28T09:24:17.373Z,9.745507
2023-03-28T09:25:17.342Z,9.745618
2023-03-28T09:26:17.458Z,9.745272
2023-03-28T09:27:17.323Z,9.745267
2023-03-28T09:28:17.314Z,9.745471
2023-03-28T09:29:17.341Z,9.745494
2023-03-28T09:30:17.297Z,9.745439
2023-03-28T09:31:17.316Z,9.745488
2023-03-28T09:32:17.339Z,9.745515
2023-03-28T09:33:17.281Z,9.745651
2023-03-28T09:34:17.298Z,9.745640
2023-03-28T09:35:17.319Z,9.745367
2023-03-28T09:36:17.310Z,9.745526
2023-03-28T09:37:17.259Z,9.745392
2023-03-28T09:38:17.235Z,9.745428
2023-03-28T09:39:17.257Z,9.745502
2023-03-28T09:40:17.222Z,9.745496
2023-03-28T09:41:17.218Z,9.745481
2023-03-28T09:42:17.217Z,9.745445
2023-03-28T09:43:17.218Z,9.745464
2023-03-28T09:44:17.225Z,9.745537
2023-03-28T09:45:17.188Z,9.745449
2023-03-28T09:46:17.195Z,9.745741
2023-03-28T09:47:17.176Z,9.745569
2023-03-28T09:48:19.144Z,9.745456
2023-03-28T09:49:18.190Z,9.745541
2023-03-28T09:50:17.165Z,9.745464
2023-03-28T09:51:17.144Z,9.745571
2023-03-28T09:52:17.130Z,9.745798
2023-03-28T09:53:17.124Z,9.745688
2023-03-28T09:54:17.119Z,9.745724
2023-03-28T09:55:17.139Z,9.745559
2023-03-28T09:56:17.101Z,9.745583
2023-03-28T09:57:17.128Z,9.745572
2023-03-28T09:58:17.089Z,9.745427
2023-03-28T09:59:17.078Z,9.745540
2023-03-28T10:00:17.115Z,9.745635
2023-03-28T10:01:17.088Z,9.745554
2023-03-28T10:02:17.058Z,9.745532
2023-03-28T10:03:17.045Z,9.745551
2023-03-28T10:04:17.108Z,9.745315
2023-03-28T10:05:17.063Z,9.745407
2023-03-28T10:06:17.028Z,9.745525
2023-03-28T10:07:17.021Z,9.745517
2023-03-28T10:08:17.015Z,9.745564
2023-03-28T10:09:17.014Z,9.745635
2023-03-28T10:10:17.045Z,9.745647
2023-03-28T10:11:16.986Z,9.745412
2023-03-28T10:12:16.980Z,9.745490
2023-03-28T10:13:16.980Z,9.745514
2023-03-28T10:14:16.965Z,9.745634
2023-03-28T10:15:16.981Z,9.745481
2023-03-28T10:16:16.961Z,9.745399
2023-03-28T10:17:16.941Z,9.745436
2023-03-28T10:18:16.998Z,9.745582
2023-03-28T10:19:16.931Z,9.745596
2023-03-28T10:20:17.023Z,9.745462
2023-03-28T10:21:16.911Z,9.745811
2023-03-28T10:22:16.920Z,9.745744
2023-03-28T10:23:16.903Z,9.745645
2023-03-28T10:24:16.891Z,9.745582
2023-03-28T10:25:16.904Z,9.745588
2023-03-28T10:26:16.889Z,9.745646
2023-03-28T10:27:16.872Z,9.745691
2023-03-28T10:28:16.857Z,9.745507
2023-03-28T10:29:16.850Z,9.745539
2023-03-28T10:30:16.867Z,9.745729
2023-03-28T10:31:16.894Z,9.745565
2023-03-28T10:32:16.826Z,9.745559
2023-03-28T10:33:16.814Z,9.745554
2023-03-28T10:34:16.800Z,9.745686
2023-03-28T10:35:18.677Z,9.745530
2023-03-28T10:36:16.855Z,9.745347
2023-03-28T10:37:16.787Z,9.745402
2023-03-28T10:38:16.858Z,9.745533
2023-03-28T10:39:16.767Z,9.745541
2023-03-28T10:40:16.923Z,9.745378
2023-03-28T10:41:17.757Z,9.745178
2023-03-28T10:42:16.760Z,9.745333
2023-03-28T10:43:16.748Z,9.745321
2023-03-28T10:44:16.733Z,9.745408
2023-03-28T10:45:16.719Z,9.745523
2023-03-28T10:46:16.751Z,9.745576
2023-03-28T10:47:16.710Z,9.745819
2023-03-28T10:48:16.704Z,9.745868
2023-03-28T10:49:16.726Z,9.745721
2023-03-28T10:50:16.721Z,9.745555
2023-03-28T10:51:16.681Z,9.745584
2023-03-28T10:52:16.670Z,9.745550
2023-03-28T10:53:16.655Z,9.745913
2023-03-28T10:54:16.650Z,9.745176
2023-03-28T10:55:16.641Z,9.745300
2023-03-28T10:56:16.663Z,9.745494
2023-03-28T10:57:16.673Z,9.745419
2023-03-28T10:58:16.621Z,9.745545
2023-03-28T10:59:16.620Z,9.745598
2023-03-28T11:00:16.611Z,9.745479
2023-03-28T11:01:16.754Z,9.745498
2023-03-28T11:02:16.652Z,9.746058
2023-03-28T11:03:16.691Z,9.745913
2023-03-28T11:04:16.582Z,9.745841
2023-03-28T11:05:16.572Z,9.745822
2023-03-28T11:06:16.595Z,9.745708
2023-03-28T11:07:16.557Z,9.745679
2023-03-28T11:08:16.554Z,9.745481
2023-03-28T11:09:16.530Z,9.745451
2023-03-28T11:10:16.525Z,9.745327
2023-03-28T11:11:16.545Z,9.745469
2023-03-28T11:12:26.589Z,9.745346
2023-03-28T11:13:18.502Z,9.745293
2023-03-28T11:14:16.493Z,9.745496
2023-03-28T11:15:16.486Z,9.745554
2023-03-28T11:16:16.545Z,9.745703
2023-03-28T11:17:16.476Z,9.745620
2023-03-28T11:18:16.460Z,9.745422
2023-03-28T11:19:16.457Z,9.745778
2023-03-28T11:20:16.447Z,9.745651
2023-03-28T11:21:16.462Z,9.745646
2023-03-28T11:22:16.429Z,9.745735
2023-03-28T11:23:16.432Z,9.745654
2023-03-28T11:24:16.421Z,9.745653
2023-03-28T11:25:16.406Z,9.745648
2023-03-28T11:26:16.431Z,9.745648
2023-03-28T11:27:16.750Z,9.745617
2023-03-28T11:28:16.384Z,9.745573
2023-03-28T11:29:16.377Z,9.745592
2023-03-28T11:30:16.379Z,9.745452
2023-03-28T11:31:16.432Z,9.745472
2023-03-28T11:32:16.355Z,9.745723
2023-03-28T11:33:16.342Z,9.745704
2023-03-28T11:34:16.352Z,9.745624
2023-03-28T11:35:16.337Z,9.745583
2023-03-28T11:36:16.356Z,9.745576
2023-03-28T11:37:16.317Z,9.745534
2023-03-28T11:38:16.309Z,9.745420
2023-03-28T11:39:16.305Z,9.745592
2023-03-28T11:40:16.296Z,9.745810
2023-03-28T11:41:16.305Z,9.745677
2023-03-28T11:42:16.270Z,9.745590
2023-03-28T11:43:16.268Z,9.745733
2023-03-28T11:44:16.272Z,9.745747